Time;durP1;ratioP1;P1;durP2;ratioP2;P2;SDS_P1;SDS_P2;PMS_P1;PMS_P2;Temp;Humidity;BMP_temperature;BMP_pressure;BME280_temperature;BME280_humidity;BME280_pressure;Samples;Min_cycle;Max_cycle;Signal;HPM_P1;HPM_P2
2021/05/08 00:02:11;;;;;;;4.20;3.50;;;9.00;45.50;;;;;;5021371;28;21311;-81
2021/05/08 00:04:38;;;;;;;3.33;2.90;;;9.20;45.10;;;;;;5021280;28;20765;-80
2021/05/08 00:07:05;;;;;;;4.80;4.30;;;8.90;46.20;;;;;;5022608;28;20524;-79
2021/05/08 00:09:32;;;;;;;5.77;4.13;;;8.90;46.20;;;;;;5016327;28;20476;-80
2021/05/08 00:12:00;;;;;;;3.40;3.13;;;8.90;47.20;;;;;;5031727;28;20549;-80
2021/05/08 00:14:28;;;;;;;4.07;3.58;;;8.80;48.10;;;;;;5016857;28;20455;-81
2021/05/08 00:16:56;;;;;;;3.37;3.07;;;8.80;48.40;;;;;;5018233;28;20240;-80
2021/05/08 00:19:23;;;;;;;3.53;3.17;;;8.80;49.20;;;;;;5019592;28;21346;-77
2021/05/08 00:21:51;;;;;;;4.73;4.30;;;8.80;49.20;;;;;;5015418;28;20470;-78
2021/05/08 00:24:18;;;;;;;4.60;3.87;;;8.70;50.60;;;;;;5013251;28;20525;-78
2021/05/08 00:26:46;;;;;;;3.33;2.90;;;8.70;51.70;;;;;;5019866;28;20509;-80
2021/05/08 00:29:13;;;;;;;4.43;3.83;;;8.70;51.60;;;;;;5017782;28;20480;-77
2021/05/08 00:31:42;;;;;;;4.83;4.10;;;8.70;51.10;;;;;;5019590;28;21010;-79
2021/05/08 00:34:09;;;;;;;4.40;4.10;;;8.70;51.40;;;;;;5019116;28;20499;-79
2021/05/08 00:36:36;;;;;;;3.93;3.20;;;8.70;51.90;;;;;;5018304;28;20464;-80
2021/05/08 00:39:05;;;;;;;3.53;3.23;;;8.70;51.60;;;;;;5019109;28;20461;-79
2021/05/08 00:41:32;;;;;;;4.70;3.83;;;8.70;50.70;;;;;;5016671;28;21202;-80
2021/05/08 00:43:59;;;;;;;6.63;4.20;;;8.60;52.20;;;;;;5007644;28;20471;-79
2021/05/08 00:46:27;;;;;;;4.77;3.90;;;8.60;52.60;;;;;;5014371;28;20470;-78
2021/05/08 00:48:57;;;;;;;4.43;4.03;;;8.50;52.50;;;;;;5021699;28;20483;-79
2021/05/08 00:51:24;;;;;;;7.83;3.47;;;8.50;54.60;;;;;;5018059;28;20649;-78
2021/05/08 00:53:52;;;;;;;3.90;3.50;;;8.50;55.60;;;;;;5013243;28;21015;-81
2021/05/08 00:56:19;;;;;;;4.30;3.60;;;8.50;55.50;;;;;;5022672;28;20471;-79
2021/05/08 00:58:46;;;;;;;3.43;3.13;;;8.50;55.50;;;;;;5025107;28;20682;-79
2021/05/08 01:01:14;;;;;;;4.20;3.00;;;8.50;56.20;;;;;;5015569;28;20513;-80
2021/05/08 01:03:43;;;;;;;3.27;2.97;;;8.40;57.10;;;;;;5016591;28;20453;-79
2021/05/08 01:06:12;;;;;;;4.07;3.77;;;8.40;57.50;;;;;;5018161;28;20471;-77
2021/05/08 01:08:40;;;;;;;4.43;4.00;;;8.40;56.60;;;;;;5021550;28;20941;-81
2021/05/08 01:11:07;;;;;;;4.77;3.87;;;8.40;57.40;;;;;;5035818;28;20484;-80
2021/05/08 01:13:35;;;;;;;3.70;3.30;;;8.30;60.00;;;;;;5025311;28;20520;-80
2021/05/08 01:16:03;;;;;;;3.50;3.00;;;8.30;61.70;;;;;;5013905;28;20533;-79
2021/05/08 01:18:32;;;;;;;4.30;3.20;;;8.40;64.80;;;;;;5022068;28;20451;-79
2021/05/08 01:20:59;;;;;;;3.07;2.80;;;8.30;61.90;;;;;;5020228;28;21001;-80
2021/05/08 01:23:28;;;;;;;3.77;3.47;;;8.60;63.70;;;;;;5019644;28;20972;-78
2021/05/08 01:25:55;;;;;;;3.97;2.90;;;8.40;61.30;;;;;;5015471;28;20478;-76
2021/05/08 01:28:26;;;;;;;3.27;2.97;;;8.40;61.10;;;;;;5013536;28;20981;-80
2021/05/08 01:30:53;;;;;;;4.10;3.60;;;8.30;62.00;;;;;;5034389;28;20499;-78
2021/05/08 01:33:20;;;;;;;3.47;2.87;;;8.30;62.50;;;;;;5018990;28;20507;-77
2021/05/08 01:35:47;;;;;;;3.67;3.37;;;8.30;73.70;;;;;;5017899;28;20455;-78
2021/05/08 01:38:15;;;;;;;4.50;2.43;;;8.40;63.70;;;;;;5012583;28;20461;-79
2021/05/08 01:40:43;;;;;;;3.17;2.87;;;8.20;64.50;;;;;;5027691;28;20524;-78
2021/05/08 01:43:10;;;;;;;4.00;3.17;;;8.20;62.80;;;;;;5034781;28;20463;-78
2021/05/08 01:45:38;;;;;;;2.90;2.67;;;8.20;63.00;;;;;;5017989;28;20479;-80
2021/05/08 01:48:08;;;;;;;3.43;3.13;;;8.10;63.80;;;;;;5021000;28;20892;-80
2021/05/08 01:50:35;;;;;;;3.50;3.20;;;8.10;62.70;;;;;;5019453;28;20485;-78
2021/05/08 01:53:02;;;;;;;3.40;3.00;;;8.00;62.20;;;;;;5026598;28;20555;-81
2021/05/08 01:55:29;;;;;;;4.30;2.60;;;7.90;64.10;;;;;;5022630;28;20473;-78
2021/05/08 01:57:58;;;;;;;3.73;3.40;;;7.90;63.00;;;;;;5019390;28;20475;-79
2021/05/08 02:00:28;;;;;;;3.57;3.07;;;7.90;62.20;;;;;;5020081;28;20545;-79
2021/05/08 02:02:56;;;;;;;4.80;2.97;;;7.90;63.30;;;;;;5022937;28;20491;-80
2021/05/08 02:05:27;;;;;;;3.30;2.80;;;7.90;64.30;;;;;;5010577;28;20466;-80
2021/05/08 02:07:54;;;;;;;4.30;3.10;;;7.90;65.50;;;;;;5016732;28;20460;-79
2021/05/08 02:10:22;;;;;;;3.37;3.10;;;8.00;66.50;;;;;;5022066;28;20492;-81
2021/05/08 02:12:49;;;;;;;3.03;2.70;;;7.90;64.60;;;;;;5016210;28;20453;-78
2021/05/08 02:15:19;;;;;;;2.50;2.30;;;7.80;63.40;;;;;;5016291;28;20470;-81
2021/05/08 02:17:46;;;;;;;3.33;3.03;;;7.90;62.30;;;;;;5022762;28;20465;-81
2021/05/08 02:20:15;;;;;;;4.07;3.27;;;7.80;62.30;;;;;;5022445;28;20536;-81
2021/05/08 02:22:44;;;;;;;8.40;4.23;;;7.70;62.90;;;;;;5024279;28;20476;-78
2021/05/08 02:25:12;;;;;;;3.40;3.10;;;7.70;63.90;;;;;;5023411;28;20468;-80
2021/05/08 02:27:41;;;;;;;2.60;2.40;;;7.80;66.50;;;;;;5021750;28;20462;-81
2021/05/08 02:30:10;;;;;;;3.30;3.00;;;7.80;67.40;;;;;;5022091;28;20495;-81
2021/05/08 02:32:38;;;;;;;3.03;2.73;;;7.80;68.50;;;;;;5024010;28;20461;-78
2021/05/08 02:35:08;;;;;;;3.07;2.77;;;7.80;68.70;;;;;;5025114;28;20558;-81
2021/05/08 02:37:36;;;;;;;4.17;2.90;;;7.70;69.30;;;;;;5019837;28;20474;-80
2021/05/08 02:40:05;;;;;;;2.97;2.67;;;7.70;68.80;;;;;;5015498;28;20493;-80
2021/05/08 02:42:32;;;;;;;4.00;3.53;;;7.70;68.80;;;;;;5018765;28;20470;-79
2021/05/08 02:45:00;;;;;;;4.00;3.40;;;7.80;69.90;;;;;;5002938;28;20475;-81
2021/05/08 02:47:27;;;;;;;6.30;3.37;;;7.70;70.40;;;;;;5015910;28;20990;-79
2021/05/08 02:49:55;;;;;;;3.83;3.20;;;7.70;70.60;;;;;;5046578;28;20522;-80
2021/05/08 02:52:23;;;;;;;5.07;3.43;;;7.70;71.80;;;;;;5019878;28;20466;-81
2021/05/08 02:54:51;;;;;;;3.00;2.50;;;7.70;71.60;;;;;;5022446;28;20548;-77
2021/05/08 02:57:18;;;;;;;3.33;2.90;;;7.70;70.60;;;;;;5054765;28;20525;-77
2021/05/08 02:59:45;;;;;;;4.10;2.80;;;7.60;70.90;;;;;;5020578;28;20553;-82
2021/05/08 03:02:12;;;;;;;2.80;2.60;;;7.60;73.00;;;;;;5018880;28;20475;-79
2021/05/08 03:04:40;;;;;;;3.50;2.70;;;7.70;71.30;;;;;;5015205;28;20550;-80
2021/05/08 03:07:08;;;;;;;3.47;2.60;;;7.60;73.70;;;;;;5019131;28;20458;-80
2021/05/08 03:09:35;;;;;;;3.00;2.40;;;7.60;72.40;;;;;;5018356;28;20953;-77
2021/05/08 03:12:04;;;;;;;2.57;2.30;;;7.60;72.10;;;;;;5021305;28;20525;-79
2021/05/08 03:14:31;;;;;;;2.13;2.03;;;7.60;71.80;;;;;;5021837;28;20478;-79
2021/05/08 03:17:05;;;;;;;2.87;2.60;;;7.60;73.60;;;;;;5017283;28;20471;-79
2021/05/08 03:19:34;;;;;;;3.27;2.97;;;7.60;90.90;;;;;;5018877;28;20472;-79
2021/05/08 03:22:01;;;;;;;3.77;2.30;;;7.50;75.60;;;;;;5021412;28;20468;-78
2021/05/08 03:24:30;;;;;;;3.03;2.63;;;7.60;75.10;;;;;;5020506;28;20469;-78
2021/05/08 03:26:57;;;;;;;2.70;2.50;;;7.50;78.00;;;;;;5020843;28;20500;-80
2021/05/08 03:29:24;;;;;;;3.70;3.30;;;7.50;78.20;;;;;;5013651;28;20579;-79
2021/05/08 03:31:51;;;;;;;3.07;2.47;;;7.40;78.90;;;;;;5014983;28;20676;-79
2021/05/08 03:34:18;;;;;;;3.00;2.30;;;7.40;78.70;;;;;;5021130;28;20573;-78
2021/05/08 03:36:46;;;;;;;3.10;2.70;;;7.50;79.30;;;;;;5017547;28;20481;-81
2021/05/08 03:39:13;;;;;;;2.97;2.77;;;7.40;78.40;;;;;;5018963;28;20534;-80
2021/05/08 03:41:41;;;;;;;4.50;2.93;;;7.50;93.00;;;;;;5022076;28;20504;-83
2021/05/08 03:44:08;;;;;;;2.97;2.70;;;7.50;77.20;;;;;;5023928;28;20475;-79
2021/05/08 03:46:35;;;;;;;3.30;3.00;;;7.60;79.10;;;;;;5022827;28;20202;-80
2021/05/08 03:49:03;;;;;;;2.70;2.47;;;7.40;79.30;;;;;;5028256;28;20899;-81
2021/05/08 03:51:31;;;;;;;4.60;3.13;;;7.60;80.40;;;;;;5019735;28;20933;-80
2021/05/08 03:53:59;;;;;;;3.47;3.17;;;7.40;79.50;;;;;;5022170;28;20490;-80
2021/05/08 03:56:26;;;;;;;3.10;2.80;;;7.40;79.70;;;;;;5022191;28;20467;-80
2021/05/08 03:58:54;;;;;;;4.70;2.17;;;7.40;80.40;;;;;;5023082;28;20989;-80
2021/05/08 04:01:21;;;;;;;2.80;2.37;;;7.40;80.90;;;;;;5019689;28;20888;-82
2021/05/08 04:03:48;;;;;;;3.60;2.40;;;7.40;82.00;;;;;;5033644;28;20475;-79
2021/05/08 04:06:16;;;;;;;2.90;2.67;;;7.40;81.90;;;;;;5033582;28;20465;-81
2021/05/08 04:08:43;;;;;;;4.03;2.97;;;7.40;82.10;;;;;;5019065;28;20463;-77
2021/05/08 04:11:10;;;;;;;4.03;3.63;;;7.40;83.50;;;;;;5023100;28;20485;-79
2021/05/08 04:13:37;;;;;;;3.63;2.30;;;7.40;85.90;;;;;;5025300;28;20518;-80
2021/05/08 04:16:06;;;;;;;3.40;3.10;;;7.40;86.10;;;;;;5024893;28;20548;-79
2021/05/08 04:18:33;;;;;;;3.93;2.63;;;7.40;86.50;;;;;;5045476;28;21406;-78
2021/05/08 04:21:00;;;;;;;4.10;2.50;;;7.30;86.40;;;;;;5022619;28;20495;-78
2021/05/08 04:23:27;;;;;;;3.77;3.37;;;7.40;86.20;;;;;;5021110;28;21143;-79
2021/05/08 04:25:54;;;;;;;3.70;2.57;;;7.30;86.30;;;;;;5020392;28;20476;-82
2021/05/08 04:28:21;;;;;;;4.10;3.20;;;7.30;88.90;;;;;;5021410;28;20556;-78
2021/05/08 04:30:49;;;;;;;3.90;3.50;;;7.40;88.00;;;;;;5013957;28;21051;-80
2021/05/08 04:33:19;;;;;;;3.47;3.10;;;7.30;88.60;;;;;;5013057;28;20540;-79
2021/05/08 04:35:46;;;;;;;4.20;3.03;;;7.30;88.80;;;;;;5015268;28;20484;-79
2021/05/08 04:38:13;;;;;;;4.17;3.20;;;7.30;90.00;;;;;;5051166;28;20839;-77
2021/05/08 04:40:41;;;;;;;2.67;2.47;;;7.40;91.00;;;;;;5025884;28;20584;-80
2021/05/08 04:43:08;;;;;;;3.13;2.93;;;7.50;92.20;;;;;;5017555;28;20463;-79
2021/05/08 04:45:36;;;;;;;3.00;2.53;;;7.40;92.70;;;;;;5026131;28;20951;-80
2021/05/08 04:48:03;;;;;;;2.60;2.40;;;7.30;94.60;;;;;;5024756;28;21250;-78
2021/05/08 04:50:31;;;;;;;4.60;2.80;;;7.40;95.70;;;;;;5026051;28;20545;-80
2021/05/08 04:52:58;;;;;;;3.03;2.50;;;7.40;95.70;;;;;;5026963;28;20464;-79
2021/05/08 04:55:25;;;;;;;5.10;2.47;;;7.40;95.70;;;;;;5020761;28;20568;-78
2021/05/08 04:57:53;;;;;;;2.80;2.60;;;7.40;96.00;;;;;;5031348;28;20458;-79
2021/05/08 05:00:20;;;;;;;3.93;2.97;;;7.40;96.80;;;;;;5023730;28;20571;-82
2021/05/08 05:02:48;;;;;;;4.03;2.83;;;7.40;97.50;;;;;;5022279;28;20456;-78
2021/05/08 05:05:19;;;;;;;8.27;4.90;;;7.40;99.90;;;;;;5022752;28;20461;-81
2021/05/08 05:07:47;;;;;;;3.93;3.30;;;7.50;99.90;;;;;;5025741;28;20982;-79
2021/05/08 05:10:15;;;;;;;4.93;3.30;;;7.60;99.90;;;;;;5018207;28;20517;-79
2021/05/08 05:12:44;;;;;;;3.87;3.57;;;7.60;99.90;;;;;;5032093;28;20500;-79
2021/05/08 05:15:12;;;;;;;3.90;3.50;;;7.60;99.80;;;;;;5022736;28;20488;-80
2021/05/08 05:17:39;;;;;;;3.37;3.07;;;7.70;99.90;;;;;;5024022;28;20470;-78
2021/05/08 05:20:08;;;;;;;4.93;3.17;;;7.70;99.90;;;;;;5020570;28;20497;-79
2021/05/08 05:22:35;;;;;;;3.80;3.50;;;7.80;99.90;;;;;;5023609;28;20971;-80
2021/05/08 05:25:04;;;;;;;5.57;3.23;;;7.80;99.90;;;;;;5027165;28;20531;-79
2021/05/08 05:27:31;;;;;;;5.75;4.50;;;7.80;99.90;;;;;;5019839;28;20476;-78
2021/05/08 05:29:59;;;;;;;4.07;3.60;;;7.80;99.90;;;;;;5028253;28;20774;-79
2021/05/08 05:32:26;;;;;;;4.53;3.53;;;7.90;99.90;;;;;;5025519;28;20465;-79
2021/05/08 05:34:54;;;;;;;4.07;3.70;;;7.90;99.90;;;;;;5022743;28;20516;-81
2021/05/08 05:37:21;;;;;;;4.03;3.53;;;8.00;99.90;;;;;;5026755;28;20460;-80
2021/05/08 05:39:49;;;;;;;4.70;3.90;;;8.00;99.90;;;;;;5024287;28;20516;-77
2021/05/08 05:42:17;;;;;;;4.07;3.77;;;8.40;99.90;;;;;;5023515;28;20955;-81
2021/05/08 05:44:44;;;;;;;4.80;4.40;;;8.10;99.90;;;;;;5020938;28;20467;-82
2021/05/08 05:47:21;;;;;;;4.00;3.60;;;8.20;99.90;;;;;;5024350;28;21049;-78
2021/05/08 05:49:50;;;;;;;4.07;3.05;;;8.20;99.90;;;;;;5040411;28;20469;-80
2021/05/08 05:52:17;;;;;;;3.13;2.53;;;8.30;99.90;;;;;;5017416;28;20210;-82
2021/05/08 05:54:46;;;;;;;5.60;3.33;;;8.40;99.90;;;;;;5027309;28;20473;-81
2021/05/08 05:57:13;;;;;;;2.23;2.07;;;8.50;99.90;;;;;;5025736;28;20488;-79
2021/05/08 05:59:41;;;;;;;2.93;2.00;;;8.60;99.90;;;;;;5025260;28;20461;-80
2021/05/08 06:02:09;;;;;;;2.37;2.13;;;8.70;99.90;;;;;;5021704;28;20498;-80
2021/05/08 06:04:37;;;;;;;2.53;2.10;;;8.70;96.10;;;;;;5022056;28;20840;-80
2021/05/08 06:07:04;;;;;;;2.17;1.50;;;8.80;96.50;;;;;;5022103;28;20265;-80
2021/05/08 06:09:31;;;;;;;2.13;1.60;;;8.70;89.60;;;;;;5021955;28;20463;-78
2021/05/08 06:11:59;;;;;;;3.63;2.33;;;8.60;93.70;;;;;;5024489;28;20462;-79
2021/05/08 06:14:28;;;;;;;2.67;1.83;;;8.70;94.60;;;;;;5014366;28;20493;-79
2021/05/08 06:16:56;;;;;;;2.50;1.93;;;8.60;92.20;;;;;;5022318;28;20469;-77
2021/05/08 06:19:24;;;;;;;2.30;1.60;;;8.60;95.60;;;;;;5022566;28;20480;-79
2021/05/08 06:21:52;;;;;;;1.73;1.63;;;8.90;94.30;;;;;;5034539;28;20493;-80
2021/05/08 06:24:19;;;;;;;5.10;1.83;;;9.00;92.30;;;;;;5008804;28;20458;-78
2021/05/08 06:26:46;;;;;;;6.23;1.70;;;9.10;90.70;;;;;;5053243;28;20602;-77
2021/05/08 06:29:13;;;;;;;2.10;1.57;;;9.10;80.60;;;;;;5023453;28;20526;-80
2021/05/08 06:31:40;;;;;;;1.67;1.57;;;9.20;80.30;;;;;;5053365;28;20540;-80
2021/05/08 06:34:08;;;;;;;1.60;1.50;;;9.30;78.60;;;;;;5016426;28;20491;-78
2021/05/08 06:36:35;;;;;;;1.85;1.65;;;9.40;75.30;;;;;;5013396;28;20523;-79
2021/05/08 06:39:03;;;;;;;2.07;1.83;;;9.70;81.70;;;;;;5013665;28;20215;-79
2021/05/08 06:41:30;;;;;;;1.83;1.57;;;10.10;75.90;;;;;;5015291;28;20559;-83
2021/05/08 06:43:58;;;;;;;2.43;1.47;;;10.50;71.10;;;;;;5024475;28;20465;-83
2021/05/08 06:46:25;;;;;;;1.60;1.50;;;10.80;72.20;;;;;;5023866;28;20461;-82
2021/05/08 06:48:52;;;;;;;2.07;1.77;;;11.10;63.00;;;;;;5027414;28;20577;-82
2021/05/08 06:51:20;;;;;;;2.73;1.70;;;11.30;60.00;;;;;;5025231;28;20506;-84
2021/05/08 06:53:47;;;;;;;1.50;1.27;;;11.40;55.50;;;;;;5025263;28;20447;-83
2021/05/08 06:56:14;;;;;;;1.93;1.50;;;11.60;51.90;;;;;;5023007;28;20514;-81
2021/05/08 06:58:41;;;;;;;1.60;1.50;;;11.80;52.90;;;;;;5023007;28;20453;-82
2021/05/08 07:01:09;;;;;;;3.63;1.80;;;12.00;53.30;;;;;;5019028;28;20465;-76
2021/05/08 07:03:36;;;;;;;1.70;1.60;;;12.20;54.20;;;;;;5024016;28;20203;-78
2021/05/08 07:06:04;;;;;;;2.20;1.50;;;12.60;59.50;;;;;;5019895;28;21038;-78
2021/05/08 07:08:32;;;;;;;1.43;1.33;;;13.20;57.90;;;;;;5022437;28;20883;-81
2021/05/08 07:10:59;;;;;;;1.40;1.30;;;13.50;52.70;;;;;;5018078;28;20523;-83
2021/05/08 07:13:26;;;;;;;2.33;1.40;;;13.60;51.60;;;;;;5019352;28;20491;-78
2021/05/08 07:15:56;;;;;;;1.60;1.50;;;13.50;49.00;;;;;;5014426;28;21063;-81
2021/05/08 07:18:24;;;;;;;4.30;1.50;;;13.40;49.40;;;;;;5017517;28;20465;-80
2021/05/08 07:20:51;;;;;;;1.70;1.60;;;13.40;48.10;;;;;;5011704;28;20523;-78
2021/05/08 07:23:19;;;;;;;1.60;1.50;;;13.40;48.70;;;;;;5015430;28;20980;-80
2021/05/08 07:25:47;;;;;;;5.50;1.70;;;13.50;55.00;;;;;;5014916;28;20457;-79
2021/05/08 07:28:16;;;;;;;2.07;1.63;;;13.70;56.40;;;;;;5022288;28;20466;-83
2021/05/08 07:30:44;;;;;;;1.63;1.53;;;13.60;48.90;;;;;;5019631;28;20475;-80
2021/05/08 07:33:12;;;;;;;2.50;1.40;;;13.60;51.80;;;;;;5021748;28;20498;-81
2021/05/08 07:35:40;;;;;;;1.53;1.43;;;13.50;47.90;;;;;;5016586;28;20475;-80
2021/05/08 07:38:08;;;;;;;1.73;1.27;;;13.50;49.00;;;;;;5023173;28;20452;-81
2021/05/08 07:40:36;;;;;;;1.43;1.30;;;13.40;47.20;;;;;;5016872;28;20470;-81
2021/05/08 07:43:05;;;;;;;3.03;1.60;;;13.40;52.70;;;;;;5034912;28;20460;-82
2021/05/08 07:45:32;;;;;;;1.60;1.50;;;13.40;47.90;;;;;;5008972;28;21058;-73
2021/05/08 07:48:00;;;;;;;1.60;1.50;;;13.30;46.80;;;;;;5012728;28;20981;-73
2021/05/08 07:50:28;;;;;;;1.60;1.50;;;13.20;44.00;;;;;;5020318;28;20481;-75
2021/05/08 07:52:56;;;;;;;1.83;1.50;;;13.20;47.70;;;;;;5020044;28;20464;-81
2021/05/08 07:55:24;;;;;;;2.30;1.60;;;13.30;44.10;;;;;;5012857;28;20895;-82
2021/05/08 07:57:51;;;;;;;2.93;1.70;;;13.20;44.50;;;;;;5016849;28;20470;-79
2021/05/08 08:00:21;;;;;;;3.60;2.20;;;13.20;51.10;;;;;;5018911;28;20491;-79
2021/05/08 08:02:48;;;;;;;1.50;1.40;;;13.20;49.70;;;;;;5020660;28;20463;-78
2021/05/08 08:05:16;;;;;;;1.90;1.50;;;13.10;45.50;;;;;;5004804;28;20469;-80
2021/05/08 08:07:43;;;;;;;5.23;1.50;;;13.10;46.00;;;;;;5023967;28;20522;-82
2021/05/08 08:10:12;;;;;;;1.60;1.50;;;13.20;47.50;;;;;;5023470;28;20536;-82
2021/05/08 08:12:40;;;;;;;1.40;1.20;;;13.10;46.30;;;;;;5021627;28;20454;-79
2021/05/08 08:15:09;;;;;;;1.70;1.30;;;13.10;46.00;;;;;;5022086;28;20536;-80
2021/05/08 08:17:37;;;;;;;1.40;1.30;;;13.10;43.60;;;;;;5026355;28;20458;-80
2021/05/08 08:20:06;;;;;;;1.87;1.27;;;13.00;35.40;;;;;;5010682;28;21611;-77
2021/05/08 08:22:34;;;;;;;1.30;1.17;;;13.00;39.30;;;;;;5022731;28;20449;-80
2021/05/08 08:25:01;;;;;;;2.17;1.00;;;13.10;35.60;;;;;;5015676;28;20467;-79
2021/05/08 08:27:28;;;;;;;1.27;1.17;;;13.20;38.00;;;;;;5021391;28;20462;-80
2021/05/08 08:29:55;;;;;;;1.30;1.20;;;13.30;43.20;;;;;;5019399;28;20535;-76
2021/05/08 08:32:22;;;;;;;1.33;1.00;;;13.40;37.60;;;;;;5021521;28;20605;-78
2021/05/08 08:34:51;;;;;;;0.90;0.90;;;13.40;38.10;;;;;;5016991;28;20484;-78
2021/05/08 08:37:18;;;;;;;1.00;1.00;;;13.50;37.00;;;;;;5015597;28;20473;-78
2021/05/08 08:39:46;;;;;;;1.58;1.13;;;13.60;32.40;;;;;;5016658;28;20498;-78
2021/05/08 08:42:13;;;;;;;1.10;1.00;;;13.40;28.60;;;;;;5019035;28;20739;-79
2021/05/08 08:44:41;;;;;;;0.97;0.97;;;13.40;28.80;;;;;;5016410;28;20474;-78
2021/05/08 08:47:28;;;;;;;1.00;1.00;;;13.40;26.80;;;;;;5021227;28;20981;-78
2021/05/08 08:50:05;;;;;;;1.57;1.03;;;13.40;27.10;;;;;;5017633;28;20482;-78
2021/05/08 08:52:32;;;;;;;1.10;1.00;;;13.40;28.20;;;;;;5020249;28;20544;-77
2021/05/08 08:54:59;;;;;;;0.90;0.90;;;13.50;27.50;;;;;;5019223;28;20482;-78
2021/05/08 08:57:33;;;;;;;1.20;1.10;;;13.60;23.80;;;;;;5020783;28;20458;-82
2021/05/08 09:00:01;;;;;;;1.00;0.90;;;13.60;25.50;;;;;;5011917;28;20985;-79
2021/05/08 09:02:29;;;;;;;1.90;1.73;;;13.60;26.20;;;;;;5020159;28;20981;-78
2021/05/08 09:04:58;;;;;;;0.97;0.80;;;13.60;26.00;;;;;;5020137;28;20890;-79
2021/05/08 09:07:29;;;;;;;1.20;1.10;;;13.70;26.50;;;;;;5015067;28;20463;-80
2021/05/08 09:09:57;;;;;;;1.20;0.93;;;13.60;23.80;;;;;;5013882;28;20493;-81
2021/05/08 09:12:27;;;;;;;0.87;0.83;;;13.70;25.80;;;;;;5005435;28;21055;-80
2021/05/08 09:14:55;;;;;;;2.33;1.40;;;13.70;25.00;;;;;;5020606;28;20589;-78
2021/05/08 09:17:25;;;;;;;1.07;0.97;;;13.70;23.30;;;;;;5019514;28;20529;-80
2021/05/08 09:19:59;;;;;;;0.90;0.90;;;13.70;24.90;;;;;;5025794;28;20888;-79
2021/05/08 09:22:32;;;;;;;2.20;1.13;;;13.80;23.80;;;;;;5020506;28;21101;-80
2021/05/08 09:25:02;;;;;;;2.00;0.90;;;13.90;23.50;;;;;;5024007;28;20465;-83
2021/05/08 09:27:49;;;;;;;1.00;0.90;;;13.90;23.00;;;;;;5004181;28;20471;-79
2021/05/08 09:30:21;;;;;;;0.90;0.83;;;13.90;21.70;;;;;;5016652;28;20478;-81
2021/05/08 09:32:59;;;;;;;0.93;0.80;;;13.90;22.50;;;;;;5021586;28;20599;-82
2021/05/08 09:35:28;;;;;;;1.93;0.80;;;13.90;22.40;;;;;;5022810;28;20578;-77
2021/05/08 09:38:10;;;;;;;1.23;1.00;;;13.90;21.60;;;;;;5015138;28;20467;-77
2021/05/08 09:40:41;;;;;;;1.13;1.00;;;13.90;22.20;;;;;;5013633;28;20659;-81
2021/05/08 09:43:11;;;;;;;1.20;1.10;;;13.90;22.40;;;;;;5013331;28;20458;-80
2021/05/08 09:45:39;;;;;;;1.23;0.70;;;14.00;25.60;;;;;;5011827;28;20515;-78
2021/05/08 09:48:21;;;;;;;1.10;1.00;;;14.20;26.60;;;;;;5009338;28;20453;-78
2021/05/08 09:51:17;;;;;;;1.67;1.00;;;14.40;26.40;;;;;;5023092;28;20554;-80
2021/05/08 09:53:45;;;;;;;1.33;1.10;;;14.50;25.30;;;;;;5022735;28;20470;-81
2021/05/08 09:56:35;;;;;;;1.73;1.00;;;14.40;27.30;;;;;;5022880;28;20479;-80
2021/05/08 09:59:25;;;;;;;0.80;0.80;;;14.50;25.30;;;;;;5020118;28;20472;-82
2021/05/08 10:02:13;;;;;;;1.43;1.27;;;14.50;25.50;;;;;;5022291;28;20572;-81
2021/05/08 10:04:54;;;;;;;1.57;1.23;;;14.60;27.90;;;;;;5007018;28;20478;-81
2021/05/08 10:07:22;;;;;;;2.40;1.00;;;14.60;27.70;;;;;;5034219;28;20458;-82
2021/05/08 10:09:54;;;;;;;0.90;0.80;;;14.70;27.80;;;;;;5010630;28;20477;-80
2021/05/08 10:12:22;;;;;;;1.77;1.10;;;14.70;29.00;;;;;;5012157;28;20966;-80
2021/05/08 10:14:51;;;;;;;1.23;1.10;;;14.80;29.20;;;;;;5004646;28;20980;-81
2021/05/08 10:17:21;;;;;;;1.30;0.90;;;14.70;24.60;;;;;;5015302;28;20524;-81
2021/05/08 10:19:50;;;;;;;0.93;0.83;;;14.80;24.60;;;;;;5019858;28;20939;-78
2021/05/08 10:22:18;;;;;;;3.40;1.20;;;14.60;21.30;;;;;;5022110;28;20454;-81
2021/05/08 10:24:47;;;;;;;1.00;0.97;;;14.60;21.80;;;;;;5020266;28;20967;-79
2021/05/08 10:27:16;;;;;;;1.47;1.00;;;14.50;22.60;;;;;;5022756;28;20858;-81
2021/05/08 10:29:46;;;;;;;1.30;0.90;;;14.60;37.90;;;;;;5016822;28;20462;-80
2021/05/08 10:32:16;;;;;;;1.30;1.20;;;14.70;26.40;;;;;;5011250;28;20453;-80
2021/05/08 10:34:52;;;;;;;1.30;0.97;;;14.70;25.40;;;;;;5010218;28;20698;-80
2021/05/08 10:37:19;;;;;;;4.83;1.00;;;14.70;26.00;;;;;;5002601;28;20446;-80
2021/05/08 10:39:49;;;;;;;1.27;0.90;;;14.90;26.60;;;;;;5025097;28;20557;-79
2021/05/08 10:42:37;;;;;;;1.20;1.10;;;14.80;27.60;;;;;;5022758;28;21311;-78
2021/05/08 10:45:06;;;;;;;2.53;1.07;;;15.00;28.90;;;;;;5018224;28;20496;-80
2021/05/08 10:48:10;;;;;;;1.10;1.00;;;15.10;42.80;;;;;;5020825;28;20956;-79
2021/05/08 10:50:58;;;;;;;2.47;1.30;;;15.20;29.10;;;;;;5011450;28;20492;-79
2021/05/08 10:53:41;;;;;;;1.20;1.10;;;15.30;28.20;;;;;;5020472;28;20548;-78
2021/05/08 10:56:27;;;;;;;2.03;1.30;;;15.30;27.20;;;;;;5013638;28;21008;-79
2021/05/08 10:59:07;;;;;;;1.23;1.10;;;15.40;31.80;;;;;;5003789;28;20522;-76
2021/05/08 11:01:42;;;;;;;1.00;1.00;;;15.50;33.00;;;;;;5010086;28;20483;-77
2021/05/08 11:04:10;;;;;;;1.20;1.10;;;15.50;31.50;;;;;;5007394;28;20460;-79
2021/05/08 11:06:41;;;;;;;1.50;1.40;;;15.60;31.90;;;;;;5013783;28;20441;-82
2021/05/08 11:09:29;;;;;;;1.43;1.10;;;15.60;33.00;;;;;;5018973;28;21011;-80
2021/05/08 11:11:56;;;;;;;1.90;1.20;;;15.70;33.30;;;;;;5016091;28;20495;-78
2021/05/08 11:14:54;;;;;;;1.30;1.20;;;15.80;37.40;;;;;;5014660;28;21014;-77
2021/05/08 11:17:21;;;;;;;2.43;1.10;;;15.80;33.70;;;;;;5046815;28;20468;-79
2021/05/08 11:19:49;;;;;;;1.23;1.13;;;15.70;32.80;;;;;;5017372;28;20462;-80
2021/05/08 11:22:31;;;;;;;1.10;1.00;;;15.60;31.80;;;;;;5009666;28;20904;-80
2021/05/08 11:24:58;;;;;;;1.80;1.07;;;15.70;32.60;;;;;;5006910;28;20462;-78
2021/05/08 11:27:27;;;;;;;1.60;1.10;;;15.80;35.20;;;;;;5011758;28;20464;-78
2021/05/08 11:30:10;;;;;;;2.17;1.10;;;15.80;33.00;;;;;;5021917;28;21025;-80
2021/05/08 11:32:48;;;;;;;1.10;1.00;;;15.90;34.80;;;;;;5015562;28;20460;-79
2021/05/08 11:35:28;;;;;;;1.27;1.13;;;15.90;36.10;;;;;;5019102;28;20524;-79
2021/05/08 11:38:20;;;;;;;1.30;1.10;;;16.00;35.70;;;;;;5014575;28;20460;-79
2021/05/08 11:40:47;;;;;;;1.53;0.90;;;16.00;36.10;;;;;;5021207;28;20461;-77
2021/05/08 11:43:22;;;;;;;1.03;0.90;;;16.00;33.00;;;;;;5013351;28;20910;-80
2021/05/08 11:45:50;;;;;;;1.10;1.00;;;16.10;32.20;;;;;;5014542;28;21467;-78
2021/05/08 11:48:17;;;;;;;1.63;0.90;;;16.10;33.50;;;;;;5011410;28;20457;-79
2021/05/08 11:50:46;;;;;;;3.83;1.20;;;16.10;35.40;;;;;;5020979;28;20476;-79
2021/05/08 11:53:17;;;;;;;1.00;0.90;;;16.10;33.60;;;;;;5016230;28;20454;-78
2021/05/08 11:55:45;;;;;;;0.93;0.93;;;16.00;29.60;;;;;;5015195;28;20550;-78
2021/05/08 11:58:24;;;;;;;1.03;0.97;;;16.00;29.10;;;;;;5014357;28;20555;-79
2021/05/08 12:00:52;;;;;;;1.23;1.07;;;16.00;27.60;;;;;;5047537;28;21013;-79
2021/05/08 12:03:20;;;;;;;1.10;1.00;;;16.00;28.40;;;;;;5012760;28;20445;-78
2021/05/08 12:05:49;;;;;;;0.80;0.80;;;16.10;29.30;;;;;;5012529;28;20450;-80
2021/05/08 12:08:20;;;;;;;2.20;1.07;;;16.10;28.20;;;;;;5013640;28;20455;-79
2021/05/08 12:10:47;;;;;;;1.10;1.00;;;16.10;29.10;;;;;;5016669;28;20736;-79
2021/05/08 12:13:19;;;;;;;0.80;0.80;;;16.10;28.20;;;;;;5017278;28;20460;-79
2021/05/08 12:15:51;;;;;;;0.83;0.83;;;16.10;41.20;;;;;;5018577;28;20483;-79
2021/05/08 12:18:20;;;;;;;0.90;0.90;;;16.10;27.40;;;;;;5017503;28;20883;-79
2021/05/08 12:20:49;;;;;;;1.13;0.80;;;16.10;28.30;;;;;;5013945;28;20507;-79
2021/05/08 12:23:18;;;;;;;0.90;0.77;;;16.00;27.70;;;;;;5009701;28;20463;-79
2021/05/08 12:26:08;;;;;;;1.07;1.00;;;16.00;27.50;;;;;;5012284;28;20522;-79
2021/05/08 12:28:37;;;;;;;1.17;0.90;;;16.10;29.30;;;;;;5018675;28;20907;-79
2021/05/08 12:31:23;;;;;;;0.70;0.70;;;16.10;28.90;;;;;;5012283;28;21510;-79
2021/05/08 12:33:51;;;;;;;0.80;0.80;;;16.10;27.60;;;;;;5018434;28;21239;-80
2021/05/08 12:36:21;;;;;;;0.77;0.77;;;15.90;26.60;;;;;;5020126;28;20725;-80
2021/05/08 12:38:49;;;;;;;0.80;0.80;;;16.00;28.60;;;;;;5016254;28;20455;-79
2021/05/08 12:41:28;;;;;;;0.80;0.80;;;16.10;28.10;;;;;;5011204;28;20484;-79
2021/05/08 12:44:06;;;;;;;2.10;1.03;;;16.10;29.00;;;;;;5013332;28;20885;-79
2021/05/08 12:46:53;;;;;;;1.53;1.00;;;16.20;28.70;;;;;;5018454;28;20778;-80
2021/05/08 12:49:21;;;;;;;0.93;0.80;;;16.30;28.90;;;;;;5020270;28;20453;-80
2021/05/08 12:51:48;;;;;;;1.33;1.00;;;16.30;34.60;;;;;;5010962;28;20480;-79
2021/05/08 12:54:21;;;;;;;2.10;1.00;;;16.30;32.20;;;;;;5018331;28;21002;-81
2021/05/08 12:56:50;;;;;;;1.37;1.27;;;16.30;30.30;;;;;;5017806;28;20484;-78
2021/05/08 12:59:28;;;;;;;1.00;0.90;;;16.30;31.30;;;;;;5011180;28;20774;-79
2021/05/08 13:02:13;;;;;;;4.33;0.83;;;16.40;32.10;;;;;;5020012;28;20720;-80
2021/05/08 13:04:43;;;;;;;0.80;0.80;;;16.50;33.80;;;;;;5022329;28;20452;-80
2021/05/08 13:07:31;;;;;;;1.57;0.83;;;16.50;32.80;;;;;;5011200;28;20451;-79